Terminal Aerodrome Forecast
Issued by NWS

Home | Current Version | Previous Version | Text Only | Print | Product List | Glossary On
Versions: 1 2 3 4 5 6 7 8 9 10 11 12 13 14 15 16 17 18 19 20 21 22 23 24 25 26 27 28 29
000
FTUS43 KDVN 231100 RRA
TAFBRL
TAF
KBRL 231130Z 2312/2412 17010KT P6SM OVC035 WS020/23040KT
      TEMPO 2312/2313 BKN025
     FM231300 17014KT 3SM -RA BR BKN015 OVC025
     FM231700 15010KT 1 1/2SM RA BR OVC010
     FM240000 12005KT 1/2SM -RA FG OVC003
     FM240600 30010KT 1SM -RA BR OVC004
     FM240900 31015G20KT 2SM -RA BR OVC008=

USA.gov is the U.S. government's official web portal to all federal, state and local government web resources and services.